Time;durP1;ratioP1;P1;durP2;ratioP2;P2;SDS_P1;SDS_P2;PMS_P1;PMS_P2;Temp;Humidity;BMP_temperature;BMP_pressure;BME280_temperature;BME280_humidity;BME280_pressure;Samples;Min_cycle;Max_cycle;Signal;HPM_P1;HPM_P2
2022/07/24 07:59:25;;;;;;;3.70;3.25;;;;;;;21.19;54.13;101718.16;5300631;27;20429;-81
2022/07/24 08:01:56;;;;;;;5.75;3.72;;;;;;;21.32;54.53;101716.25;5300679;28;20033;-80
2022/07/24 08:04:27;;;;;;;3.92;3.38;;;;;;;21.42;54.40;101705.44;5292386;28;20371;-79
2022/07/24 08:06:59;;;;;;;4.03;3.38;;;;;;;21.47;53.87;101705.25;5295502;28;20120;-80
2022/07/24 08:09:30;;;;;;;4.40;3.13;;;;;;;21.53;53.00;101711.50;5300371;28;20036;-80
2022/07/24 08:12:02;;;;;;;7.28;3.30;;;;;;;21.67;52.87;101705.56;5301328;28;20024;-80
2022/07/24 08:14:33;;;;;;;3.30;2.97;;;;;;;21.76;52.18;101711.97;5283929;28;20017;-79
2022/07/24 08:17:04;;;;;;;3.60;2.97;;;;;;;21.83;51.38;101714.22;5289722;28;20052;-80
2022/07/24 08:19:35;;;;;;;3.63;2.92;;;;;;;21.87;51.60;101715.19;5277798;28;20427;-75
2022/07/24 08:22:07;;;;;;;7.57;6.88;;;;;;;21.91;51.37;101717.00;5278862;28;20020;-77
2022/07/24 08:24:39;;;;;;;3.75;3.05;;;;;;;22.13;51.95;101712.94;5279629;28;20021;-77
2022/07/24 08:27:10;;;;;;;3.28;2.63;;;;;;;22.18;51.13;101716.72;5279912;28;20055;-77
2022/07/24 08:29:42;;;;;;;3.20;2.88;;;;;;;22.29;51.14;101721.63;5287544;28;20255;-76
2022/07/24 08:32:13;;;;;;;3.45;2.95;;;;;;;22.28;50.43;101719.97;5280229;28;20392;-76
2022/07/24 08:34:44;;;;;;;8.63;7.72;;;;;;;22.44;50.30;101717.31;5278558;28;20021;-76
2022/07/24 08:37:19;;;;;;;3.42;3.05;;;;;;;22.45;50.52;101716.16;5280438;28;20465;-76
2022/07/24 08:39:50;;;;;;;3.37;3.07;;;;;;;22.51;50.42;101719.56;5279434;28;20491;-75
2022/07/24 08:42:21;;;;;;;3.65;2.85;;;;;;;22.62;50.84;101711.44;5278787;28;20037;-75
2022/07/24 08:44:52;;;;;;;2.70;2.50;;;;;;;22.67;50.81;101716.88;5292833;28;20017;-75
2022/07/24 08:47:26;;;;;;;3.22;2.90;;;;;;;22.81;50.85;101714.53;5270301;28;20032;-76
2022/07/24 08:49:58;;;;;;;3.08;2.70;;;;;;;22.84;50.63;101713.00;5275844;28;20526;-76
2022/07/24 08:52:29;;;;;;;3.95;3.10;;;;;;;22.91;50.56;101714.06;5279057;28;20070;-81
2022/07/24 08:55:01;;;;;;;2.97;2.60;;;;;;;23.03;50.26;101701.94;5279400;28;20028;-81
2022/07/24 08:57:33;;;;;;;3.63;3.10;;;;;;;22.98;50.57;101703.03;5305670;28;20487;-81
2022/07/24 09:00:05;;;;;;;4.35;2.78;;;;;;;23.07;50.46;101714.22;5320584;28;20043;-74
2022/07/24 09:02:37;;;;;;;4.00;3.05;;;;;;;23.12;50.86;101710.34;5321565;28;20464;-83
2022/07/24 09:05:10;;;;;;;4.43;3.22;;;;;;;23.13;50.98;101709.13;5287149;28;20051;-80
2022/07/24 09:07:41;;;;;;;4.95;4.55;;;;;;;23.00;51.55;101708.31;5308933;28;20020;-81
2022/07/24 09:10:17;;;;;;;4.65;3.65;;;;;;;23.18;51.55;101706.06;5306416;28;20032;-79
2022/07/24 09:12:50;;;;;;;5.30;3.90;;;;;;;23.27;51.44;101703.94;5307565;28;20024;-82
2022/07/24 09:15:23;;;;;;;6.03;3.50;;;;;;;23.53;51.22;101708.38;5291327;28;20028;-81
2022/07/24 09:17:57;;;;;;;5.03;3.83;;;;;;;23.49;51.23;101705.41;5284770;28;20048;-81
2022/07/24 09:20:28;;;;;;;4.28;3.50;;;;;;;23.42;51.04;101699.56;5284783;28;20056;-75
2022/07/24 09:23:00;;;;;;;7.43;3.70;;;;;;;23.42;51.28;101696.75;5293084;28;20108;-78
2022/07/24 09:25:33;;;;;;;4.07;3.45;;;;;;;23.43;50.67;101689.88;5306374;28;20042;-78
2022/07/24 09:28:04;;;;;;;3.65;2.90;;;;;;;23.59;51.08;101693.59;5306797;28;20020;-80
2022/07/24 09:30:42;;;;;;;3.83;3.45;;;;;;;23.63;51.37;101683.22;5298319;28;20024;-80
2022/07/24 09:33:14;;;;;;;4.25;3.90;;;;;;;23.65;51.10;101677.22;5304668;28;20352;-80
2022/07/24 09:35:48;;;;;;;4.28;3.17;;;;;;;23.68;51.50;101682.16;5299389;28;20028;-74
2022/07/24 09:38:24;;;;;;;3.88;3.58;;;;;;;23.65;51.05;101674.38;5291387;28;20036;-74
2022/07/24 09:40:58;;;;;;;3.20;2.65;;;;;;;23.74;51.11;101671.41;5285450;28;20051;-74
2022/07/24 09:43:32;;;;;;;3.90;3.47;;;;;;;23.79;50.93;101674.00;5288445;28;20020;-75
2022/07/24 09:46:03;;;;;;;5.55;3.20;;;;;;;23.94;50.69;101667.56;5295492;28;20154;-75
2022/07/24 09:48:38;;;;;;;2.72;2.50;;;;;;;23.96;51.01;101667.19;5302136;28;20104;-76
2022/07/24 09:51:11;;;;;;;;;;;;;;;24.07;50.66;101673.97;5289544;28;20083;-79
2022/07/24 09:53:44;;;;;;;3.45;3.15;;;;;;;24.02;50.51;101660.88;5306098;28;19914;-83
2022/07/24 09:56:19;;;;;;;4.13;3.40;;;;;;;24.14;50.56;101664.88;5286003;28;20114;-83
2022/07/24 09:58:56;;;;;;;4.35;3.33;;;;;;;24.18;50.39;101669.41;5285347;28;20067;-82
2022/07/24 10:01:28;;;;;;;5.00;2.97;;;;;;;24.16;49.82;101657.66;5286513;28;20508;-85
2022/07/24 10:04:01;;;;;;;5.32;3.17;;;;;;;24.20;50.16;101660.56;5287196;28;20044;-84
2022/07/24 10:06:36;;;;;;;3.80;3.28;;;;;;;24.22;49.57;101659.00;5285601;28;20032;-84
2022/07/24 10:09:12;;;;;;;3.65;3.30;;;;;;;24.22;49.99;101659.00;5287579;28;20035;-82
2022/07/24 10:11:46;;;;;;;4.50;2.88;;;;;;;24.27;50.10;101660.75;5285016;28;20034;-83
2022/07/24 10:14:17;;;;;;;3.35;3.05;;;;;;;24.28;49.95;101651.06;5276623;28;20024;-84
2022/07/24 10:17:04;;;;;;;4.97;3.35;;;;;;;24.35;48.72;101656.09;5286630;28;20020;-84
2022/07/24 10:19:49;;;;;;;3.22;2.60;;;;;;;24.59;48.63;101644.59;5284885;28;20016;-83
2022/07/24 10:22:23;;;;;;;5.65;3.08;;;;;;;24.54;47.66;101644.88;5286688;28;20036;-84
2022/07/24 10:24:55;;;;;;;3.08;2.88;;;;;;;24.66;47.82;101644.78;5285680;28;20107;-84
2022/07/24 10:27:30;;;;;;;3.20;2.90;;;;;;;24.82;48.15;101638.28;5285713;28;20037;-82
2022/07/24 10:30:08;;;;;;;4.20;3.65;;;;;;;24.91;47.94;101633.22;5281005;28;20023;-84
2022/07/24 10:32:39;;;;;;;3.85;3.00;;;;;;;24.76;47.42;101636.91;5286337;28;20032;-83
2022/07/24 10:35:27;;;;;;;3.13;2.80;;;;;;;24.82;47.71;101635.44;5283762;28;20036;-84
2022/07/24 10:38:37;;;;;;;3.28;2.97;;;;;;;25.07;46.99;101624.69;5285108;28;20394;-83
2022/07/24 10:41:15;;;;;;;2.97;2.75;;;;;;;25.12;46.65;101632.91;5262347;28;20033;-84
2022/07/24 10:44:19;;;;;;;4.03;3.22;;;;;;;25.17;46.71;101627.78;5284852;28;20058;-77
2022/07/24 10:47:24;;;;;;;3.33;3.03;;;;;;;25.22;46.41;101621.00;5289000;28;20420;-76
2022/07/24 10:49:57;;;;;;;3.28;2.80;;;;;;;25.32;45.47;101628.13;5295340;28;20357;-77
2022/07/24 10:52:31;;;;;;;3.47;2.58;;;;;;;25.35;46.01;101613.97;5296024;28;20495;-76
2022/07/24 10:55:39;;;;;;;4.47;3.25;;;;;;;25.40;45.92;101609.22;5297231;28;20020;-77
2022/07/24 10:58:15;;;;;;;4.72;3.08;;;;;;;25.46;45.78;101608.53;5283233;28;20048;-76
2022/07/24 11:00:48;;;;;;;4.18;3.22;;;;;;;25.46;45.68;101605.69;5283424;28;20058;-76
2022/07/24 11:03:26;;;;;;;3.28;2.97;;;;;;;25.53;45.86;101611.53;5275059;28;20465;-84
2022/07/24 11:06:09;;;;;;;3.00;2.63;;;;;;;25.71;44.68;101608.22;5282758;28;20464;-84
2022/07/24 11:08:50;;;;;;;3.92;2.83;;;;;;;25.72;43.93;101604.19;5283147;28;20099;-83
2022/07/24 11:11:23;;;;;;;5.35;3.22;;;;;;;25.70;44.33;101606.59;5284076;28;20456;-84
2022/07/24 11:14:01;;;;;;;3.28;2.97;;;;;;;25.79;44.94;101607.16;5284149;28;20026;-84
2022/07/24 11:16:35;;;;;;;4.60;3.10;;;;;;;25.96;44.88;101603.06;5283230;28;20495;-84
2022/07/24 11:19:06;;;;;;;3.45;3.15;;;;;;;26.11;44.73;101601.31;5283469;28;20107;-83
2022/07/24 11:21:43;;;;;;;3.13;2.47;;;;;;;26.17;44.64;101602.63;5271964;28;20556;-84
2022/07/24 11:24:22;;;;;;;4.68;2.47;;;;;;;26.22;43.69;101599.47;5282981;28;20495;-84
2022/07/24 11:27:17;;;;;;;5.28;3.83;;;;;;;26.23;43.73;101612.50;5283844;28;20148;-84
2022/07/24 11:29:53;;;;;;;3.60;2.97;;;;;;;26.17;44.27;101599.78;5272258;28;20096;-83
2022/07/24 11:32:27;;;;;;;5.07;2.90;;;;;;;26.11;44.38;101607.00;5262740;28;20394;-84
2022/07/24 11:35:01;;;;;;;3.53;3.08;;;;;;;26.35;44.00;101600.09;5262784;28;20127;-84
2022/07/24 11:37:34;;;;;;;3.38;3.08;;;;;;;26.30;44.02;101601.25;5262582;28;20021;-84
2022/07/24 11:40:07;;;;;;;4.38;3.20;;;;;;;26.43;44.24;101590.50;5282442;28;20067;-83
2022/07/24 11:42:38;;;;;;;4.30;2.63;;;;;;;26.61;44.43;101582.28;5282908;28;20456;-85
2022/07/24 11:45:10;;;;;;;3.03;2.70;;;;;;;26.82;44.35;101582.63;5262012;28;20108;-84
2022/07/24 11:47:41;;;;;;;3.30;3.00;;;;;;;26.74;43.94;101586.56;5265085;28;20016;-83
2022/07/24 11:50:12;;;;;;;3.58;2.78;;;;;;;26.89;43.96;101581.88;5283571;28;20410;-83
2022/07/24 11:52:44;;;;;;;3.95;2.78;;;;;;;26.77;43.92;101585.78;5282294;28;20029;-84
2022/07/24 11:55:17;;;;;;;3.65;2.75;;;;;;;26.74;44.06;101577.19;5282300;28;20024;-84
2022/07/24 11:57:51;;;;;;;3.50;2.88;;;;;;;26.91;44.17;101578.66;5282392;28;20053;-83
2022/07/24 12:00:25;;;;;;;2.67;2.47;;;;;;;27.11;43.47;101583.03;5282626;28;20024;-84
2022/07/24 12:03:00;;;;;;;2.63;2.42;;;;;;;27.11;43.49;101574.47;5283444;28;20024;-84
2022/07/24 12:05:37;;;;;;;13.25;11.55;;;;;;;27.23;43.41;101568.59;5282376;28;20438;-85
2022/07/24 12:08:19;;;;;;;4.25;3.05;;;;;;;27.26;43.37;101556.41;5283319;28;20017;-80
2022/07/24 12:10:57;;;;;;;5.63;2.80;;;;;;;27.43;43.08;101552.16;5282642;28;20040;-84
2022/07/24 12:13:30;;;;;;;4.18;2.90;;;;;;;27.48;43.11;101553.81;5283784;28;20026;-84
2022/07/24 12:16:01;;;;;;;3.67;2.80;;;;;;;27.59;42.84;101549.06;5283184;28;20151;-84
2022/07/24 12:18:32;;;;;;;4.22;2.33;;;;;;;27.42;42.73;101547.66;5283437;28;20104;-84
2022/07/24 12:21:04;;;;;;;4.22;2.47;;;;;;;27.75;42.81;101541.09;5282182;28;20024;-83
2022/07/24 12:23:36;;;;;;;2.50;2.20;;;;;;;27.70;42.45;101541.44;5283484;28;20491;-83
2022/07/24 12:26:07;;;;;;;5.70;2.83;;;;;;;27.52;42.83;101544.09;5285815;28;20181;-81
2022/07/24 12:28:38;;;;;;;3.50;2.83;;;;;;;27.62;42.69;101539.75;5283793;28;20063;-84
2022/07/24 12:31:10;;;;;;;2.70;2.50;;;;;;;27.83;42.65;101536.31;5282931;28;20049;-86
2022/07/24 12:33:53;;;;;;;2.95;2.72;;;;;;;27.84;42.54;101531.44;5281686;28;20082;-84
2022/07/24 12:36:26;;;;;;;2.47;2.28;;;;;;;27.83;42.64;101524.91;5283331;28;20017;-84
2022/07/24 12:38:57;;;;;;;2.53;2.30;;;;;;;27.90;43.16;101532.72;5282801;28;20493;-83
2022/07/24 12:41:30;;;;;;;2.53;2.33;;;;;;;27.83;42.47;101524.09;5283141;28;20082;-82
2022/07/24 12:44:04;;;;;;;3.03;2.40;;;;;;;27.99;42.68;101521.81;5283351;28;20040;-86
2022/07/24 12:46:41;;;;;;;3.58;2.63;;;;;;;28.32;42.36;101508.63;5289943;28;20060;-82
2022/07/24 12:49:14;;;;;;;5.35;2.65;;;;;;;28.32;42.24;101515.16;5312904;28;20027;-83
2022/07/24 12:51:55;;;;;;;3.30;2.90;;;;;;;28.50;42.59;101509.59;5319728;28;20027;-83
2022/07/24 12:54:29;;;;;;;3.40;2.30;;;;;;;28.51;41.64;101508.41;5317422;28;20061;-83
2022/07/24 12:57:09;;;;;;;3.28;2.63;;;;;;;28.65;41.33;101498.28;5319089;28;20069;-84
2022/07/24 12:59:46;;;;;;;10.20;9.00;;;;;;;28.73;41.08;101488.56;5319196;28;20040;-83
2022/07/24 13:02:20;;;;;;;3.08;2.78;;;;;;;28.60;41.37;101486.03;5294275;28;20071;-84
2022/07/24 13:04:54;;;;;;;5.68;2.95;;;;;;;28.85;41.44;101487.41;5283148;28;20020;-79
2022/07/24 13:07:25;;;;;;;4.50;2.45;;;;;;;28.99;41.22;101484.59;5286777;28;20128;-79
2022/07/24 13:09:56;;;;;;;4.25;3.85;;;;;;;28.95;40.92;101478.06;5285656;28;20133;-84
2022/07/24 13:12:28;;;;;;;12.20;5.53;;;;;;;29.11;40.70;101480.59;5288070;28;20032;-82
2022/07/24 13:14:59;;;;;;;8.30;6.80;;;;;;;29.20;40.73;101478.19;5286711;28;20024;-82
2022/07/24 13:17:30;;;;;;;4.22;3.00;;;;;;;29.26;40.24;101470.84;5272950;28;20033;-82
2022/07/24 13:20:07;;;;;;;3.67;3.08;;;;;;;29.55;40.42;101477.44;5268297;28;20017;-84
2022/07/24 13:22:38;;;;;;;5.97;2.88;;;;;;;29.58;40.11;101470.94;5286006;28;20088;-83
2022/07/24 13:25:09;;;;;;;6.45;2.85;;;;;;;29.39;39.85;101468.44;5286812;28;20112;-84
2022/07/24 13:27:40;;;;;;;3.17;2.60;;;;;;;29.59;39.89;101472.56;5278433;28;20052;-83
2022/07/24 13:30:13;;;;;;;4.97;2.72;;;;;;;29.64;39.98;101457.88;5265418;28;20473;-83
2022/07/24 13:32:45;;;;;;;4.18;3.08;;;;;;;29.73;39.33;101462.41;5265982;28;20080;-82
2022/07/24 13:35:19;;;;;;;3.50;3.20;;;;;;;29.72;39.59;101455.88;5265609;28;20021;-84
2022/07/24 13:37:50;;;;;;;4.03;3.05;;;;;;;29.79;39.93;101449.34;5282771;28;20058;-82
2022/07/24 13:40:21;;;;;;;6.07;3.47;;;;;;;29.61;39.99;101444.41;5309507;28;20052;-83
2022/07/24 13:42:53;;;;;;;4.43;3.15;;;;;;;29.73;39.65;101440.34;5311467;28;20016;-87
2022/07/24 13:45:24;;;;;;;4.20;2.97;;;;;;;29.98;39.38;101439.53;5310660;28;20064;-86
2022/07/24 13:47:55;;;;;;;2.83;2.50;;;;;;;29.77;39.47;101428.94;5310968;28;20024;-87
2022/07/24 13:50:28;;;;;;;4.95;2.97;;;;;;;30.02;38.53;101423.19;5310356;28;20028;-83
2022/07/24 13:52:59;;;;;;;7.68;4.07;;;;;;;30.20;38.31;101418.25;5301517;28;20357;-82
2022/07/24 13:55:31;;;;;;;4.70;4.25;;;;;;;30.15;38.72;101424.41;5294300;28;20039;-83
2022/07/24 13:58:03;;;;;;;2.92;2.60;;;;;;;30.16;38.33;101410.91;5289316;28;20045;-82
2022/07/24 14:00:36;;;;;;;7.15;3.92;;;;;;;30.24;38.38;101410.50;5289882;28;20051;-82
2022/07/24 14:03:08;;;;;;;3.65;2.80;;;;;;;30.40;38.64;101403.50;5289118;28;20541;-83
2022/07/24 14:05:40;;;;;;;10.18;4.53;;;;;;;30.47;38.17;101401.44;5287594;28;20021;-78
2022/07/24 14:08:11;;;;;;;12.80;4.53;;;;;;;30.64;38.13;101399.75;5286382;28;20024;-82
2022/07/24 14:10:44;;;;;;;3.20;2.67;;;;;;;30.65;37.43;101389.94;5273501;28;20025;-83
2022/07/24 14:13:16;;;;;;;4.13;2.78;;;;;;;30.64;38.08;101385.44;5303808;28;20475;-82
2022/07/24 14:15:47;;;;;;;4.20;3.28;;;;;;;30.81;37.74;101374.31;5306226;28;20063;-83
2022/07/24 14:18:20;;;;;;;5.15;2.78;;;;;;;30.77;37.51;101378.03;5306200;28;20478;-82
2022/07/24 14:20:51;;;;;;;5.13;2.88;;;;;;;30.87;37.63;101361.25;5306061;28;20352;-79
2022/07/24 14:23:24;;;;;;;3.70;2.72;;;;;;;31.08;37.08;101363.16;5306228;28;20022;-80
2022/07/24 14:25:55;;;;;;;3.35;3.05;;;;;;;31.07;37.88;101359.50;5305670;28;20020;-82
2022/07/24 14:28:27;;;;;;;12.77;11.57;;;;;;;31.03;36.97;101366.47;5287586;28;20017;-83
2022/07/24 14:30:59;;;;;;;15.63;14.30;;;;;;;31.23;36.87;101361.03;5284554;28;20472;-82
2022/07/24 14:33:31;;;;;;;3.88;2.97;;;;;;;31.27;36.57;101356.06;5283710;28;20025;-73
2022/07/24 14:36:02;;;;;;;4.38;2.88;;;;;;;31.19;36.41;101359.00;5283894;28;20401;-74
2022/07/24 14:38:33;;;;;;;34.17;10.10;;;;;;;31.29;36.17;101354.41;5284535;28;20490;-82
2022/07/24 14:41:05;;;;;;;5.65;3.00;;;;;;;31.33;36.32;101349.47;5283873;28;20028;-82
2022/07/24 14:43:36;;;;;;;6.57;4.05;;;;;;;31.39;36.19;101353.53;5277329;28;20066;-83
2022/07/24 14:46:10;;;;;;;12.98;5.32;;;;;;;31.34;36.29;101356.00;5275377;28;20614;-83
2022/07/24 14:48:41;;;;;;;4.67;3.03;;;;;;;31.11;36.36;101348.81;5283515;28;20048;-82
2022/07/24 14:51:12;;;;;;;2.67;2.28;;;;;;;31.20;36.67;101343.44;5284054;28;20062;-82
2022/07/24 14:53:44;;;;;;;3.28;2.85;;;;;;;31.19;36.35;101343.84;5283578;28;20028;-81
2022/07/24 14:56:15;;;;;;;8.75;3.95;;;;;;;31.18;36.53;101333.63;5284151;28;20391;-82
2022/07/24 14:58:46;;;;;;;2.97;2.45;;;;;;;31.07;37.01;101335.75;5284046;28;20063;-85
2022/07/24 15:01:18;;;;;;;2.58;2.38;;;;;;;31.06;37.32;101322.66;5282095;28;20038;-83
2022/07/24 15:03:49;;;;;;;5.65;2.88;;;;;;;30.95;36.73;101317.81;5284199;28;20063;-81
2022/07/24 15:06:22;;;;;;;3.20;1.90;;;;;;;30.96;36.99;101327.22;5284415;28;20395;-82
2022/07/24 15:08:53;;;;;;;5.03;2.63;;;;;;;30.82;37.31;101318.75;5282637;28;20056;-83
2022/07/24 15:11:25;;;;;;;2.72;2.53;;;;;;;30.86;37.24;101322.38;5283550;28;20033;-81
2022/07/24 15:13:57;;;;;;;10.40;4.75;;;;;;;30.78;37.59;101318.72;5283444;28;20056;-80
2022/07/24 15:16:28;;;;;;;7.10;2.75;;;;;;;30.70;37.29;101306.50;5278230;28;20461;-80
2022/07/24 15:18:59;;;;;;;7.53;3.28;;;;;;;30.69;37.32;101301.19;5265362;28;20375;-81
2022/07/24 15:21:31;;;;;;;8.65;3.88;;;;;;;30.83;37.96;101295.41;5283686;28;20051;-81
2022/07/24 15:24:03;;;;;;;9.07;3.80;;;;;;;30.70;37.99;101305.69;5282674;28;20097;-80
2022/07/24 15:26:40;;;;;;;6.10;4.55;;;;;;;30.61;37.45;101288.16;5281132;28;20464;-77
2022/07/24 15:29:14;;;;;;;6.15;3.00;;;;;;;30.61;37.98;101291.84;5262091;28;20434;-80
2022/07/24 15:31:46;;;;;;;34.78;10.07;;;;;;;30.82;37.94;101284.38;5262092;28;20025;-81
2022/07/24 15:34:17;;;;;;;4.50;2.42;;;;;;;30.71;37.65;101285.25;5262425;28;20013;-80
2022/07/24 15:36:49;;;;;;;8.52;2.92;;;;;;;30.83;37.22;101278.22;5275386;28;20043;-80
2022/07/24 15:39:20;;;;;;;13.88;3.83;;;;;;;30.67;37.53;101278.72;5294438;28;20024;-81
2022/07/24 15:41:52;;;;;;;6.20;2.53;;;;;;;30.64;37.91;101268.09;5283988;28;20016;-79
2022/07/24 15:44:24;;;;;;;7.88;2.95;;;;;;;30.75;37.64;101265.16;5282964;28;20023;-80
2022/07/24 15:46:55;;;;;;;5.88;3.17;;;;;;;30.59;37.48;101265.69;5283713;28;20107;-80
2022/07/24 15:49:26;;;;;;;9.27;5.32;;;;;;;30.75;37.48;101263.09;5282967;28;20084;-79
2022/07/24 15:51:57;;;;;;;9.52;4.05;;;;;;;30.63;37.41;101257.91;5279473;28;20100;-80
2022/07/24 15:54:29;;;;;;;5.63;3.10;;;;;;;30.53;37.88;101250.19;5295408;28;20024;-80
2022/07/24 15:57:00;;;;;;;3.83;2.22;;;;;;;30.60;37.68;101255.03;5282505;28;20070;-81
2022/07/24 15:59:31;;;;;;;4.88;2.15;;;;;;;30.58;37.67;101246.88;5282558;28;20044;-81
2022/07/24 16:02:03;;;;;;;8.35;3.17;;;;;;;30.69;37.55;101250.50;5282875;28;20020;-81
2022/07/24 16:04:36;;;;;;;4.57;2.30;;;;;;;30.62;37.62;101235.41;5282521;28;20529;-81
2022/07/24 16:07:07;;;;;;;2.92;2.08;;;;;;;30.64;37.67;101230.91;5282988;28;20388;-80
2022/07/24 16:09:38;;;;;;;2.75;2.30;;;;;;;30.55;37.83;101239.13;5272156;28;20032;-80
2022/07/24 16:12:10;;;;;;;2.08;1.88;;;;;;;30.50;38.27;101228.94;5299074;28;20088;-81
2022/07/24 16:14:42;;;;;;;2.20;2.00;;;;;;;30.57;38.60;101233.00;5304088;28;20081;-81
2022/07/24 16:17:17;;;;;;;3.33;1.70;;;;;;;30.64;37.94;101218.63;5303864;28;20081;-80
2022/07/24 16:19:48;;;;;;;3.10;2.15;;;;;;;30.62;38.06;101221.91;5305360;28;20421;-81
2022/07/24 16:22:20;;;;;;;2.30;2.10;;;;;;;30.66;37.93;101216.19;5308068;28;20107;-82
2022/07/24 16:24:52;;;;;;;4.18;2.30;;;;;;;30.71;38.10;101212.88;5308127;28;20032;-81
2022/07/24 16:27:23;;;;;;;2.13;1.92;;;;;;;30.69;38.07;101201.81;5282511;28;20158;-81
2022/07/24 16:29:55;;;;;;;2.72;1.88;;;;;;;30.80;37.98;101200.94;5286980;28;20073;-81
2022/07/24 16:32:26;;;;;;;2.05;1.80;;;;;;;30.78;37.41;101198.47;5285989;28;20032;-81
2022/07/24 16:34:58;;;;;;;2.30;2.10;;;;;;;30.67;37.46;101192.84;5286528;28;20036;-81
2022/07/24 16:37:30;;;;;;;3.20;1.85;;;;;;;30.71;37.70;101190.78;5296051;28;20052;-80
2022/07/24 16:40:05;;;;;;;4.45;2.00;;;;;;;31.09;37.37;101192.94;5294059;28;20491;-80
2022/07/24 16:42:36;;;;;;;;;;;;;;;31.20;37.73;101185.88;5294285;28;20033;-82
2022/07/24 16:45:08;;;;;;;2.42;1.90;;;;;;;30.89;37.60;101181.28;5291295;28;19920;-80
2022/07/24 16:47:39;;;;;;;3.13;2.05;;;;;;;31.05;37.60;101174.97;5291853;28;20028;-81
2022/07/24 16:50:10;;;;;;;2.33;2.13;;;;;;;31.00;37.37;101176.25;5296731;28;20039;-82
2022/07/24 16:52:42;;;;;;;6.85;2.33;;;;;;;31.14;36.91;101176.13;5286310;28;20052;-83
2022/07/24 16:55:13;;;;;;;2.22;1.90;;;;;;;31.03;37.18;101175.41;5291305;28;20031;-81
2022/07/24 16:57:44;;;;;;;3.40;3.03;;;;;;;31.15;36.60;101165.47;5297187;28;20036;-81
2022/07/24 17:00:16;;;;;;;3.85;2.50;;;;;;;31.08;36.82;101171.28;5289011;28;20050;-81
2022/07/24 17:02:47;;;;;;;2.03;1.90;;;;;;;31.13;36.79;101165.88;5282658;28;20029;-81
2022/07/24 17:05:19;;;;;;;3.60;2.70;;;;;;;31.14;36.61;101161.81;5285942;28;20044;-80
2022/07/24 17:07:50;;;;;;;2.67;2.47;;;;;;;31.10;36.96;101163.06;5285398;28;20020;-81
2022/07/24 17:10:22;;;;;;;2.88;2.58;;;;;;;31.08;37.18;101148.34;5285996;28;20476;-80
2022/07/24 17:12:54;;;;;;;3.33;2.70;;;;;;;31.05;37.22;101154.94;5294907;28;20024;-80
2022/07/24 17:15:25;;;;;;;8.35;3.35;;;;;;;31.08;36.83;101146.31;5290784;28;20020;-81
2022/07/24 17:18:01;;;;;;;4.25;2.20;;;;;;;31.05;37.01;101150.03;5275052;28;20377;-82
2022/07/24 17:20:36;;;;;;;4.57;4.15;;;;;;;31.22;36.93;101147.38;5265150;28;20393;-82
2022/07/24 17:23:10;;;;;;;4.07;2.22;;;;;;;31.18;36.59;101145.38;5264995;28;20036;-81
2022/07/24 17:25:43;;;;;;;2.47;2.28;;;;;;;31.22;36.72;101135.94;5265370;28;20033;-80
2022/07/24 17:28:14;;;;;;;3.75;2.90;;;;;;;31.22;37.16;101136.75;5280416;28;20028;-72
2022/07/24 17:30:46;;;;;;;4.18;2.65;;;;;;;31.30;37.17;101143.22;5296775;28;20032;-73
